sensor_id;sensor_type;location;lat;lon;timestamp;temperature;humidity
31046;DHT22;17711;54.018;9.300;2022-07-22T00:00:18;18.40;99.90
31046;DHT22;17711;54.018;9.300;2022-07-22T00:02:49;18.40;99.90
31046;DHT22;17711;54.018;9.300;2022-07-22T00:05:18;18.40;99.90
31046;DHT22;17711;54.018;9.300;2022-07-22T00:07:47;18.40;99.90
31046;DHT22;17711;54.018;9.300;2022-07-22T00:10:16;18.40;99.90
31046;DHT22;17711;54.018;9.300;2022-07-22T00:12:47;18.40;99.90
31046;DHT22;17711;54.018;9.300;2022-07-22T00:15:15;18.50;99.90
31046;DHT22;17711;54.018;9.300;2022-07-22T00:17:44;18.50;99.90
31046;DHT22;17711;54.018;9.300;2022-07-22T00:20:13;18.50;99.90
31046;DHT22;17711;54.018;9.300;2022-07-22T00:22:42;18.50;99.90
31046;DHT22;17711;54.018;9.300;2022-07-22T00:25:11;18.50;99.90
31046;DHT22;17711;54.018;9.300;2022-07-22T00:27:40;18.40;99.90
31046;DHT22;17711;54.018;9.300;2022-07-22T00:30:11;18.40;99.90
31046;DHT22;17711;54.018;9.300;2022-07-22T00:32:40;18.40;99.90
31046;DHT22;17711;54.018;9.300;2022-07-22T00:35:10;18.40;99.90
31046;DHT22;17711;54.018;9.300;2022-07-22T00:37:38;18.30;99.90
31046;DHT22;17711;54.018;9.300;2022-07-22T00:40:08;18.30;99.90
31046;DHT22;17711;54.018;9.300;2022-07-22T00:42:39;18.30;99.90
31046;DHT22;17711;54.018;9.300;2022-07-22T00:45:10;18.30;99.90
31046;DHT22;17711;54.018;9.300;2022-07-22T00:47:39;18.30;99.90
31046;DHT22;17711;54.018;9.300;2022-07-22T00:50:08;18.20;99.90
31046;DHT22;17711;54.018;9.300;2022-07-22T00:52:38;18.20;99.90
31046;DHT22;17711;54.018;9.300;2022-07-22T00:55:08;18.20;99.90
31046;DHT22;17711;54.018;9.300;2022-07-22T00:57:36;18.10;99.90
31046;DHT22;17711;54.018;9.300;2022-07-22T01:00:08;18.10;99.90
31046;DHT22;17711;54.018;9.300;2022-07-22T01:02:42;18.20;99.90
31046;DHT22;17711;54.018;9.300;2022-07-22T01:05:11;18.20;99.90
31046;DHT22;17711;54.018;9.300;2022-07-22T01:07:40;18.10;99.90
31046;DHT22;17711;54.018;9.300;2022-07-22T01:10:09;18.00;99.90
31046;DHT22;17711;54.018;9.300;2022-07-22T01:12:38;18.10;99.90
31046;DHT22;17711;54.018;9.300;2022-07-22T01:15:09;18.10;99.90
31046;DHT22;17711;54.018;9.300;2022-07-22T01:17:39;18.10;99.90
31046;DHT22;17711;54.018;9.300;2022-07-22T01:20:10;18.10;99.90
31046;DHT22;17711;54.018;9.300;2022-07-22T01:22:40;18.00;99.90
31046;DHT22;17711;54.018;9.300;2022-07-22T01:25:12;18.00;99.90
31046;DHT22;17711;54.018;9.300;2022-07-22T01:27:40;18.00;99.90
31046;DHT22;17711;54.018;9.300;2022-07-22T01:30:10;18.00;99.90
31046;DHT22;17711;54.018;9.300;2022-07-22T01:32:42;18.10;99.90
31046;DHT22;17711;54.018;9.300;2022-07-22T01:35:15;18.10;99.90
31046;DHT22;17711;54.018;9.300;2022-07-22T01:37:46;18.00;99.90
31046;DHT22;17711;54.018;9.300;2022-07-22T01:40:14;18.00;99.90
31046;DHT22;17711;54.018;9.300;2022-07-22T01:42:44;18.10;99.90
31046;DHT22;17711;54.018;9.300;2022-07-22T01:45:15;18.10;99.90
31046;DHT22;17711;54.018;9.300;2022-07-22T01:47:44;18.10;99.90
31046;DHT22;17711;54.018;9.300;2022-07-22T01:50:13;18.10;99.90
31046;DHT22;17711;54.018;9.300;2022-07-22T01:52:44;18.10;99.90
31046;DHT22;17711;54.018;9.300;2022-07-22T01:55:16;18.10;99.90
31046;DHT22;17711;54.018;9.300;2022-07-22T01:57:45;18.10;99.90
31046;DHT22;17711;54.018;9.300;2022-07-22T02:00:15;18.10;99.90
31046;DHT22;17711;54.018;9.300;2022-07-22T02:02:44;18.00;99.90
31046;DHT22;17711;54.018;9.300;2022-07-22T02:05:14;18.00;99.90
31046;DHT22;17711;54.018;9.300;2022-07-22T02:07:44;18.00;99.90
31046;DHT22;17711;54.018;9.300;2022-07-22T02:10:13;17.90;99.90
31046;DHT22;17711;54.018;9.300;2022-07-22T02:12:43;17.90;99.90
31046;DHT22;17711;54.018;9.300;2022-07-22T02:15:11;17.90;99.90
31046;DHT22;17711;54.018;9.300;2022-07-22T02:17:40;18.00;99.90
31046;DHT22;17711;54.018;9.300;2022-07-22T02:20:10;17.90;99.90
31046;DHT22;17711;54.018;9.300;2022-07-22T02:22:38;17.90;99.90
31046;DHT22;17711;54.018;9.300;2022-07-22T02:25:11;17.90;99.90
31046;DHT22;17711;54.018;9.300;2022-07-22T02:27:40;17.90;99.90
31046;DHT22;17711;54.018;9.300;2022-07-22T02:30:10;17.90;99.90
31046;DHT22;17711;54.018;9.300;2022-07-22T02:32:43;17.90;99.90
31046;DHT22;17711;54.018;9.300;2022-07-22T02:35:11;17.90;99.90
31046;DHT22;17711;54.018;9.300;2022-07-22T02:37:40;17.90;99.90
31046;DHT22;17711;54.018;9.300;2022-07-22T02:40:10;18.00;99.90
31046;DHT22;17711;54.018;9.300;2022-07-22T02:42:40;17.90;99.90
31046;DHT22;17711;54.018;9.300;2022-07-22T02:45:10;17.90;99.90
31046;DHT22;17711;54.018;9.300;2022-07-22T02:47:46;18.00;99.90
31046;DHT22;17711;54.018;9.300;2022-07-22T02:50:15;18.00;99.90
31046;DHT22;17711;54.018;9.300;2022-07-22T02:52:44;17.90;99.90
31046;DHT22;17711;54.018;9.300;2022-07-22T02:55:18;17.90;99.90
31046;DHT22;17711;54.018;9.300;2022-07-22T02:57:47;17.90;99.90
31046;DHT22;17711;54.018;9.300;2022-07-22T03:00:16;17.90;99.90
31046;DHT22;17711;54.018;9.300;2022-07-22T03:02:47;17.90;99.90
31046;DHT22;17711;54.018;9.300;2022-07-22T03:05:16;17.90;99.90
31046;DHT22;17711;54.018;9.300;2022-07-22T03:07:45;17.90;99.90
31046;DHT22;17711;54.018;9.300;2022-07-22T03:10:17;17.90;99.90
31046;DHT22;17711;54.018;9.300;2022-07-22T03:12:45;17.90;99.90
31046;DHT22;17711;54.018;9.300;2022-07-22T03:15:17;17.90;99.90
31046;DHT22;17711;54.018;9.300;2022-07-22T03:17:46;17.80;99.90
31046;DHT22;17711;54.018;9.300;2022-07-22T03:20:14;17.80;99.90
31046;DHT22;17711;54.018;9.300;2022-07-22T03:22:43;17.70;99.90
31046;DHT22;17711;54.018;9.300;2022-07-22T03:25:12;17.80;99.90
31046;DHT22;17711;54.018;9.300;2022-07-22T03:27:42;17.80;99.90
31046;DHT22;17711;54.018;9.300;2022-07-22T03:30:12;17.80;99.90
31046;DHT22;17711;54.018;9.300;2022-07-22T03:32:41;17.80;99.90
31046;DHT22;17711;54.018;9.300;2022-07-22T03:35:13;17.80;99.90
31046;DHT22;17711;54.018;9.300;2022-07-22T03:37:42;17.80;99.90
31046;DHT22;17711;54.018;9.300;2022-07-22T03:40:11;17.90;99.90
31046;DHT22;17711;54.018;9.300;2022-07-22T03:42:42;17.90;99.90
31046;DHT22;17711;54.018;9.300;2022-07-22T03:45:13;17.90;99.90
31046;DHT22;17711;54.018;9.300;2022-07-22T03:47:41;17.90;99.90
31046;DHT22;17711;54.018;9.300;2022-07-22T03:50:10;17.90;99.90
31046;DHT22;17711;54.018;9.300;2022-07-22T03:52:40;17.90;99.90
31046;DHT22;17711;54.018;9.300;2022-07-22T03:55:09;17.90;99.90
31046;DHT22;17711;54.018;9.300;2022-07-22T03:57:38;17.90;99.90
31046;DHT22;17711;54.018;9.300;2022-07-22T04:00:09;18.00;99.90
31046;DHT22;17711;54.018;9.300;2022-07-22T04:02:38;18.00;99.90
31046;DHT22;17711;54.018;9.300;2022-07-22T04:05:08;18.00;99.90
31046;DHT22;17711;54.018;9.300;2022-07-22T04:07:37;18.00;99.90
31046;DHT22;17711;54.018;9.300;2022-07-22T04:10:06;18.00;99.90
31046;DHT22;17711;54.018;9.300;2022-07-22T04:12:36;18.00;99.90
31046;DHT22;17711;54.018;9.300;2022-07-22T04:15:09;18.00;99.90
31046;DHT22;17711;54.018;9.300;2022-07-22T04:17:38;18.00;99.90
31046;DHT22;17711;54.018;9.300;2022-07-22T04:20:07;18.00;99.90
31046;DHT22;17711;54.018;9.300;2022-07-22T04:22:36;18.10;99.90
31046;DHT22;17711;54.018;9.300;2022-07-22T04:25:08;18.10;99.90
31046;DHT22;17711;54.018;9.300;2022-07-22T04:27:37;18.10;99.90
31046;DHT22;17711;54.018;9.300;2022-07-22T04:30:08;18.10;99.90
31046;DHT22;17711;54.018;9.300;2022-07-22T04:32:37;18.10;99.90
31046;DHT22;17711;54.018;9.300;2022-07-22T04:35:07;18.10;99.90
31046;DHT22;17711;54.018;9.300;2022-07-22T04:37:36;18.10;99.90
31046;DHT22;17711;54.018;9.300;2022-07-22T04:40:05;18.10;99.90
31046;DHT22;17711;54.018;9.300;2022-07-22T04:42:34;18.10;99.90
31046;DHT22;17711;54.018;9.300;2022-07-22T04:45:04;18.10;99.90
31046;DHT22;17711;54.018;9.300;2022-07-22T04:47:34;18.20;99.90
31046;DHT22;17711;54.018;9.300;2022-07-22T04:50:03;18.20;99.90
31046;DHT22;17711;54.018;9.300;2022-07-22T04:52:32;18.20;99.90
31046;DHT22;17711;54.018;9.300;2022-07-22T04:55:01;18.30;99.90
31046;DHT22;17711;54.018;9.300;2022-07-22T04:57:30;18.30;99.90
31046;DHT22;17711;54.018;9.300;2022-07-22T04:59:58;18.30;99.90
31046;DHT22;17711;54.018;9.300;2022-07-22T05:02:27;18.30;99.90
31046;DHT22;17711;54.018;9.300;2022-07-22T05:04:57;18.40;99.90
31046;DHT22;17711;54.018;9.300;2022-07-22T05:07:27;18.40;99.90
31046;DHT22;17711;54.018;9.300;2022-07-22T05:09:55;18.50;99.90
31046;DHT22;17711;54.018;9.300;2022-07-22T05:12:24;18.60;99.90
31046;DHT22;17711;54.018;9.300;2022-07-22T05:14:53;18.70;99.90
31046;DHT22;17711;54.018;9.300;2022-07-22T05:17:21;18.70;99.90
31046;DHT22;17711;54.018;9.300;2022-07-22T05:19:52;18.60;99.90
31046;DHT22;17711;54.018;9.300;2022-07-22T05:22:22;18.70;99.90
31046;DHT22;17711;54.018;9.300;2022-07-22T05:24:51;18.70;99.90
31046;DHT22;17711;54.018;9.300;2022-07-22T05:27:20;18.80;99.90
31046;DHT22;17711;54.018;9.300;2022-07-22T05:29:48;18.80;99.90
31046;DHT22;17711;54.018;9.300;2022-07-22T05:32:17;18.90;99.90
31046;DHT22;17711;54.018;9.300;2022-07-22T05:34:46;19.00;99.90
31046;DHT22;17711;54.018;9.300;2022-07-22T05:37:17;19.00;99.90
31046;DHT22;17711;54.018;9.300;2022-07-22T05:39:47;19.00;99.90
31046;DHT22;17711;54.018;9.300;2022-07-22T05:42:16;19.00;99.90
31046;DHT22;17711;54.018;9.300;2022-07-22T05:44:45;19.10;99.90
31046;DHT22;17711;54.018;9.300;2022-07-22T05:47:14;19.10;99.90
31046;DHT22;17711;54.018;9.300;2022-07-22T05:49:43;19.00;99.90
31046;DHT22;17711;54.018;9.300;2022-07-22T05:52:11;19.00;99.90
31046;DHT22;17711;54.018;9.300;2022-07-22T05:54:41;19.10;99.90
31046;DHT22;17711;54.018;9.300;2022-07-22T05:57:13;19.00;99.90
31046;DHT22;17711;54.018;9.300;2022-07-22T05:59:42;19.10;99.90
31046;DHT22;17711;54.018;9.300;2022-07-22T06:02:10;19.30;99.90
31046;DHT22;17711;54.018;9.300;2022-07-22T06:04:41;19.40;99.90
31046;DHT22;17711;54.018;9.300;2022-07-22T06:07:12;19.50;99.90
31046;DHT22;17711;54.018;9.300;2022-07-22T06:09:41;19.60;99.90
31046;DHT22;17711;54.018;9.300;2022-07-22T06:12:09;19.70;99.90
31046;DHT22;17711;54.018;9.300;2022-07-22T06:14:50;19.80;99.90
31046;DHT22;17711;54.018;9.300;2022-07-22T06:17:19;19.90;99.90
31046;DHT22;17711;54.018;9.300;2022-07-22T06:19:48;19.90;99.90
31046;DHT22;17711;54.018;9.300;2022-07-22T06:22:16;19.90;99.90
31046;DHT22;17711;54.018;9.300;2022-07-22T06:24:46;20.00;99.90
31046;DHT22;17711;54.018;9.300;2022-07-22T06:27:15;20.00;99.90
31046;DHT22;17711;54.018;9.300;2022-07-22T06:29:45;20.00;99.90
31046;DHT22;17711;54.018;9.300;2022-07-22T06:32:14;20.00;99.90
31046;DHT22;17711;54.018;9.300;2022-07-22T06:34:46;20.00;99.90
31046;DHT22;17711;54.018;9.300;2022-07-22T06:37:15;20.10;99.90
31046;DHT22;17711;54.018;9.300;2022-07-22T06:39:58;20.10;99.90
31046;DHT22;17711;54.018;9.300;2022-07-22T06:42:27;20.30;99.90
31046;DHT22;17711;54.018;9.300;2022-07-22T06:44:58;20.40;99.90
31046;DHT22;17711;54.018;9.300;2022-07-22T06:47:33;20.50;99.90
31046;DHT22;17711;54.018;9.300;2022-07-22T06:50:06;20.50;99.90
31046;DHT22;17711;54.018;9.300;2022-07-22T06:52:40;20.60;99.90
31046;DHT22;17711;54.018;9.300;2022-07-22T06:55:10;20.70;99.90
31046;DHT22;17711;54.018;9.300;2022-07-22T06:57:39;20.80;99.90
31046;DHT22;17711;54.018;9.300;2022-07-22T07:00:10;20.90;99.90
31046;DHT22;17711;54.018;9.300;2022-07-22T07:02:40;20.90;99.90
31046;DHT22;17711;54.018;9.300;2022-07-22T07:05:09;20.90;99.90
31046;DHT22;17711;54.018;9.300;2022-07-22T07:07:46;21.00;99.90
31046;DHT22;17711;54.018;9.300;2022-07-22T07:10:15;20.80;99.90
31046;DHT22;17711;54.018;9.300;2022-07-22T07:12:44;20.80;99.90
31046;DHT22;17711;54.018;9.300;2022-07-22T07:15:14;20.80;99.90
31046;DHT22;17711;54.018;9.300;2022-07-22T07:17:53;20.70;99.90
31046;DHT22;17711;54.018;9.300;2022-07-22T07:20:22;20.60;99.90
31046;DHT22;17711;54.018;9.300;2022-07-22T07:22:51;20.50;99.90
31046;DHT22;17711;54.018;9.300;2022-07-22T07:25:20;20.50;99.90
31046;DHT22;17711;54.018;9.300;2022-07-22T07:27:51;20.50;99.90
31046;DHT22;17711;54.018;9.300;2022-07-22T07:30:22;20.40;99.90
31046;DHT22;17711;54.018;9.300;2022-07-22T07:32:51;20.40;99.90
31046;DHT22;17711;54.018;9.300;2022-07-22T07:35:20;20.40;99.90
31046;DHT22;17711;54.018;9.300;2022-07-22T07:37:55;20.40;99.90
31046;DHT22;17711;54.018;9.300;2022-07-22T07:40:23;20.40;99.90
31046;DHT22;17711;54.018;9.300;2022-07-22T07:42:52;20.30;99.90
31046;DHT22;17711;54.018;9.300;2022-07-22T07:45:31;20.30;99.90
31046;DHT22;17711;54.018;9.300;2022-07-22T07:48:00;20.40;99.90
31046;DHT22;17711;54.018;9.300;2022-07-22T07:50:29;20.60;99.90
31046;DHT22;17711;54.018;9.300;2022-07-22T07:52:58;20.70;99.90
31046;DHT22;17711;54.018;9.300;2022-07-22T07:55:27;20.80;99.90
31046;DHT22;17711;54.018;9.300;2022-07-22T07:57:56;20.70;99.90
31046;DHT22;17711;54.018;9.300;2022-07-22T08:00:27;20.80;99.90
31046;DHT22;17711;54.018;9.300;2022-07-22T08:03:01;20.60;99.90
31046;DHT22;17711;54.018;9.300;2022-07-22T08:05:32;20.60;99.90
31046;DHT22;17711;54.018;9.300;2022-07-22T08:08:02;20.60;99.90
31046;DHT22;17711;54.018;9.300;2022-07-22T08:10:41;20.60;99.90
31046;DHT22;17711;54.018;9.300;2022-07-22T08:13:27;20.70;99.90
31046;DHT22;17711;54.018;9.300;2022-07-22T08:15:56;20.90;99.90
31046;DHT22;17711;54.018;9.300;2022-07-22T08:18:27;21.00;99.90
31046;DHT22;17711;54.018;9.300;2022-07-22T08:20:56;21.10;99.90
31046;DHT22;17711;54.018;9.300;2022-07-22T08:23:26;21.10;99.90
31046;DHT22;17711;54.018;9.300;2022-07-22T08:25:55;21.10;99.90
31046;DHT22;17711;54.018;9.300;2022-07-22T08:28:24;21.10;99.90
31046;DHT22;17711;54.018;9.300;2022-07-22T08:30:53;21.00;99.90
31046;DHT22;17711;54.018;9.300;2022-07-22T08:33:22;20.80;99.90
31046;DHT22;17711;54.018;9.300;2022-07-22T08:35:52;20.80;99.90
31046;DHT22;17711;54.018;9.300;2022-07-22T08:38:22;20.80;99.90
31046;DHT22;17711;54.018;9.300;2022-07-22T08:40:53;20.60;99.90
31046;DHT22;17711;54.018;9.300;2022-07-22T08:43:41;20.60;99.90
31046;DHT22;17711;54.018;9.300;2022-07-22T08:46:16;20.60;99.90
31046;DHT22;17711;54.018;9.300;2022-07-22T08:48:53;20.60;99.90
31046;DHT22;17711;54.018;9.300;2022-07-22T08:51:28;20.50;99.90
31046;DHT22;17711;54.018;9.300;2022-07-22T08:53:59;20.40;99.90
31046;DHT22;17711;54.018;9.300;2022-07-22T08:56:28;20.30;99.90
31046;DHT22;17711;54.018;9.300;2022-07-22T08:58:57;20.30;99.90
31046;DHT22;17711;54.018;9.300;2022-07-22T09:01:31;20.30;99.90
31046;DHT22;17711;54.018;9.300;2022-07-22T09:04:04;20.50;99.90
31046;DHT22;17711;54.018;9.300;2022-07-22T09:06:35;20.50;99.90
31046;DHT22;17711;54.018;9.300;2022-07-22T09:09:05;20.60;99.90
31046;DHT22;17711;54.018;9.300;2022-07-22T09:11:40;20.80;99.90
31046;DHT22;17711;54.018;9.300;2022-07-22T09:14:08;20.90;99.90
31046;DHT22;17711;54.018;9.300;2022-07-22T09:16:42;21.20;99.90
31046;DHT22;17711;54.018;9.300;2022-07-22T09:19:11;21.40;99.90
31046;DHT22;17711;54.018;9.300;2022-07-22T09:21:44;21.60;99.90
31046;DHT22;17711;54.018;9.300;2022-07-22T09:24:27;22.00;99.90
31046;DHT22;17711;54.018;9.300;2022-07-22T09:26:56;22.80;99.90
31046;DHT22;17711;54.018;9.300;2022-07-22T09:29:26;22.90;99.90
31046;DHT22;17711;54.018;9.300;2022-07-22T09:32:03;22.60;99.90
31046;DHT22;17711;54.018;9.300;2022-07-22T09:34:35;22.60;99.90
31046;DHT22;17711;54.018;9.300;2022-07-22T09:37:06;22.40;98.80
31046;DHT22;17711;54.018;9.300;2022-07-22T09:39:35;22.10;99.90
31046;DHT22;17711;54.018;9.300;2022-07-22T09:42:05;21.80;99.90
31046;DHT22;17711;54.018;9.300;2022-07-22T09:44:34;21.50;99.90
31046;DHT22;17711;54.018;9.300;2022-07-22T09:47:03;21.50;99.90
31046;DHT22;17711;54.018;9.300;2022-07-22T09:49:34;21.50;99.90
31046;DHT22;17711;54.018;9.300;2022-07-22T09:52:06;21.70;99.90
31046;DHT22;17711;54.018;9.300;2022-07-22T09:54:35;21.90;99.90
31046;DHT22;17711;54.018;9.300;2022-07-22T09:57:04;21.90;99.90
31046;DHT22;17711;54.018;9.300;2022-07-22T09:59:32;21.90;99.90
31046;DHT22;17711;54.018;9.300;2022-07-22T10:02:04;21.80;99.90
31046;DHT22;17711;54.018;9.300;2022-07-22T10:04:34;21.70;99.90
31046;DHT22;17711;54.018;9.300;2022-07-22T10:07:04;21.80;99.90
31046;DHT22;17711;54.018;9.300;2022-07-22T10:09:35;21.80;99.90
31046;DHT22;17711;54.018;9.300;2022-07-22T10:12:06;21.90;99.90
31046;DHT22;17711;54.018;9.300;2022-07-22T10:14:36;22.00;99.90
31046;DHT22;17711;54.018;9.300;2022-07-22T10:17:07;22.20;99.90
31046;DHT22;17711;54.018;9.300;2022-07-22T10:19:37;22.30;99.90
31046;DHT22;17711;54.018;9.300;2022-07-22T10:25:20;22.60;99.90
31046;DHT22;17711;54.018;9.300;2022-07-22T10:27:53;22.50;98.50
31046;DHT22;17711;54.018;9.300;2022-07-22T10:30:24;22.60;99.40
31046;DHT22;17711;54.018;9.300;2022-07-22T10:33:11;22.50;95.50
31046;DHT22;17711;54.018;9.300;2022-07-22T10:35:53;22.50;96.00
31046;DHT22;17711;54.018;9.300;2022-07-22T10:38:23;22.60;94.90
31046;DHT22;17711;54.018;9.300;2022-07-22T10:40:56;22.60;90.10
31046;DHT22;17711;54.018;9.300;2022-07-22T10:43:27;22.60;94.20
31046;DHT22;17711;54.018;9.300;2022-07-22T10:46:00;22.50;93.60
31046;DHT22;17711;54.018;9.300;2022-07-22T10:48:45;22.20;88.60
31046;DHT22;17711;54.018;9.300;2022-07-22T10:51:16;22.10;95.60
31046;DHT22;17711;54.018;9.300;2022-07-22T10:53:52;22.10;92.90
31046;DHT22;17711;54.018;9.300;2022-07-22T10:56:26;22.30;95.30
31046;DHT22;17711;54.018;9.300;2022-07-22T10:59:09;22.50;94.40
31046;DHT22;17711;54.018;9.300;2022-07-22T11:01:43;22.60;96.30
31046;DHT22;17711;54.018;9.300;2022-07-22T11:04:25;22.70;88.00
31046;DHT22;17711;54.018;9.300;2022-07-22T11:06:57;22.80;92.40
31046;DHT22;17711;54.018;9.300;2022-07-22T11:09:32;23.00;91.60
31046;DHT22;17711;54.018;9.300;2022-07-22T11:12:16;23.10;91.30
31046;DHT22;17711;54.018;9.300;2022-07-22T11:14:45;23.50;78.80
31046;DHT22;17711;54.018;9.300;2022-07-22T11:17:18;23.60;88.90
31046;DHT22;17711;54.018;9.300;2022-07-22T11:19:55;23.90;91.00
31046;DHT22;17711;54.018;9.300;2022-07-22T11:22:34;24.00;85.50
31046;DHT22;17711;54.018;9.300;2022-07-22T11:25:10;24.20;83.30
31046;DHT22;17711;54.018;9.300;2022-07-22T11:28:12;24.00;79.00
31046;DHT22;17711;54.018;9.300;2022-07-22T11:30:44;23.70;78.10
31046;DHT22;17711;54.018;9.300;2022-07-22T11:33:16;23.40;82.90
31046;DHT22;17711;54.018;9.300;2022-07-22T11:36:02;23.20;87.10
31046;DHT22;17711;54.018;9.300;2022-07-22T11:38:50;23.00;85.30
31046;DHT22;17711;54.018;9.300;2022-07-22T11:41:24;22.90;86.90
31046;DHT22;17711;54.018;9.300;2022-07-22T11:44:06;22.70;91.20
31046;DHT22;17711;54.018;9.300;2022-07-22T11:46:39;22.90;84.20
31046;DHT22;17711;54.018;9.300;2022-07-22T11:49:18;23.10;90.70
31046;DHT22;17711;54.018;9.300;2022-07-22T11:51:52;23.20;88.90
31046;DHT22;17711;54.018;9.300;2022-07-22T11:54:24;22.80;84.50
31046;DHT22;17711;54.018;9.300;2022-07-22T11:56:59;22.80;87.80
31046;DHT22;17711;54.018;9.300;2022-07-22T11:59:57;22.70;81.30
31046;DHT22;17711;54.018;9.300;2022-07-22T12:02:58;22.60;79.90
31046;DHT22;17711;54.018;9.300;2022-07-22T12:05:31;22.40;91.90
31046;DHT22;17711;54.018;9.300;2022-07-22T12:08:03;22.40;82.30
31046;DHT22;17711;54.018;9.300;2022-07-22T12:10:40;22.10;86.60
31046;DHT22;17711;54.018;9.300;2022-07-22T12:13:11;22.30;85.70
31046;DHT22;17711;54.018;9.300;2022-07-22T12:16:00;22.50;94.10
31046;DHT22;17711;54.018;9.300;2022-07-22T12:18:58;22.80;90.90
31046;DHT22;17711;54.018;9.300;2022-07-22T12:21:35;23.00;85.50
31046;DHT22;17711;54.018;9.300;2022-07-22T12:24:11;23.10;81.70
31046;DHT22;17711;54.018;9.300;2022-07-22T12:26:49;23.00;81.40
31046;DHT22;17711;54.018;9.300;2022-07-22T12:29:28;23.00;89.30
31046;DHT22;17711;54.018;9.300;2022-07-22T12:32:10;22.90;85.00
31046;DHT22;17711;54.018;9.300;2022-07-22T12:34:45;23.20;86.20
31046;DHT22;17711;54.018;9.300;2022-07-22T12:37:33;23.70;87.10
31046;DHT22;17711;54.018;9.300;2022-07-22T12:40:11;23.90;78.10
31046;DHT22;17711;54.018;9.300;2022-07-22T12:43:02;23.80;80.10
31046;DHT22;17711;54.018;9.300;2022-07-22T12:45:38;23.80;82.90
31046;DHT22;17711;54.018;9.300;2022-07-22T12:48:28;23.80;79.90
31046;DHT22;17711;54.018;9.300;2022-07-22T12:51:03;23.90;82.80
31046;DHT22;17711;54.018;9.300;2022-07-22T12:53:38;23.80;76.50
31046;DHT22;17711;54.018;9.300;2022-07-22T12:56:19;23.80;79.70
31046;DHT22;17711;54.018;9.300;2022-07-22T12:58:54;23.70;79.30
31046;DHT22;17711;54.018;9.300;2022-07-22T13:01:24;23.70;82.50
31046;DHT22;17711;54.018;9.300;2022-07-22T13:03:57;23.70;78.90
31046;DHT22;17711;54.018;9.300;2022-07-22T13:06:27;23.90;76.10
31046;DHT22;17711;54.018;9.300;2022-07-22T13:08:59;24.10;78.90
31046;DHT22;17711;54.018;9.300;2022-07-22T13:11:31;24.20;73.80
31046;DHT22;17711;54.018;9.300;2022-07-22T13:14:11;24.00;68.50
31046;DHT22;17711;54.018;9.300;2022-07-22T13:16:47;23.90;72.20
31046;DHT22;17711;54.018;9.300;2022-07-22T13:19:28;23.80;77.30
31046;DHT22;17711;54.018;9.300;2022-07-22T13:22:16;23.50;73.30
31046;DHT22;17711;54.018;9.300;2022-07-22T13:25:01;23.50;78.00
31046;DHT22;17711;54.018;9.300;2022-07-22T13:27:36;23.50;84.40
31046;DHT22;17711;54.018;9.300;2022-07-22T13:30:14;23.10;79.60
31046;DHT22;17711;54.018;9.300;2022-07-22T13:32:50;22.90;85.60
31046;DHT22;17711;54.018;9.300;2022-07-22T13:35:44;22.90;89.00
31046;DHT22;17711;54.018;9.300;2022-07-22T13:38:15;22.80;92.40
31046;DHT22;17711;54.018;9.300;2022-07-22T13:41:10;22.60;90.90
31046;DHT22;17711;54.018;9.300;2022-07-22T13:43:50;22.60;92.30
31046;DHT22;17711;54.018;9.300;2022-07-22T13:46:37;22.40;85.60
31046;DHT22;17711;54.018;9.300;2022-07-22T13:49:12;22.20;89.20
31046;DHT22;17711;54.018;9.300;2022-07-22T13:51:44;22.20;87.90
31046;DHT22;17711;54.018;9.300;2022-07-22T13:54:22;22.40;90.00
31046;DHT22;17711;54.018;9.300;2022-07-22T13:56:56;22.50;82.70
31046;DHT22;17711;54.018;9.300;2022-07-22T13:59:30;22.40;82.70
31046;DHT22;17711;54.018;9.300;2022-07-22T14:02:01;22.50;81.50
31046;DHT22;17711;54.018;9.300;2022-07-22T14:04:46;22.70;84.70
31046;DHT22;17711;54.018;9.300;2022-07-22T14:07:35;22.90;84.10
31046;DHT22;17711;54.018;9.300;2022-07-22T14:10:10;23.00;78.10
31046;DHT22;17711;54.018;9.300;2022-07-22T14:12:43;23.00;79.90
31046;DHT22;17711;54.018;9.300;2022-07-22T14:15:25;22.80;82.50
31046;DHT22;17711;54.018;9.300;2022-07-22T14:18:10;22.90;85.70
31046;DHT22;17711;54.018;9.300;2022-07-22T14:20:44;23.00;78.00
31046;DHT22;17711;54.018;9.300;2022-07-22T14:23:44;22.90;78.20
31046;DHT22;17711;54.018;9.300;2022-07-22T14:26:29;22.80;74.10
31046;DHT22;17711;54.018;9.300;2022-07-22T14:29:08;22.50;74.10
31046;DHT22;17711;54.018;9.300;2022-07-22T14:31:51;22.40;79.30
31046;DHT22;17711;54.018;9.300;2022-07-22T14:34:24;22.40;85.50
31046;DHT22;17711;54.018;9.300;2022-07-22T14:37:00;22.50;87.60
31046;DHT22;17711;54.018;9.300;2022-07-22T14:39:36;22.50;90.10
31046;DHT22;17711;54.018;9.300;2022-07-22T14:42:10;22.50;88.50
31046;DHT22;17711;54.018;9.300;2022-07-22T14:44:44;22.40;86.80
31046;DHT22;17711;54.018;9.300;2022-07-22T14:47:26;22.60;76.70
31046;DHT22;17711;54.018;9.300;2022-07-22T14:50:01;22.60;83.00
31046;DHT22;17711;54.018;9.300;2022-07-22T14:52:47;22.60;86.90
31046;DHT22;17711;54.018;9.300;2022-07-22T14:55:34;22.60;83.60
31046;DHT22;17711;54.018;9.300;2022-07-22T14:58:11;22.60;90.10
31046;DHT22;17711;54.018;9.300;2022-07-22T15:00:44;22.70;88.40
31046;DHT22;17711;54.018;9.300;2022-07-22T15:03:14;22.80;84.80
31046;DHT22;17711;54.018;9.300;2022-07-22T15:05:50;22.80;85.00
31046;DHT22;17711;54.018;9.300;2022-07-22T15:08:22;22.80;88.60
31046;DHT22;17711;54.018;9.300;2022-07-22T15:11:11;22.80;85.60
31046;DHT22;17711;54.018;9.300;2022-07-22T15:13:46;22.80;90.30
31046;DHT22;17711;54.018;9.300;2022-07-22T15:16:18;22.90;80.70
31046;DHT22;17711;54.018;9.300;2022-07-22T15:18:53;23.00;80.20
31046;DHT22;17711;54.018;9.300;2022-07-22T15:21:28;22.80;74.30
31046;DHT22;17711;54.018;9.300;2022-07-22T15:24:08;22.50;72.90
31046;DHT22;17711;54.018;9.300;2022-07-22T15:26:42;22.60;83.60
31046;DHT22;17711;54.018;9.300;2022-07-22T15:29:14;22.70;84.20
31046;DHT22;17711;54.018;9.300;2022-07-22T15:31:47;22.80;84.30
31046;DHT22;17711;54.018;9.300;2022-07-22T15:34:26;22.90;85.50
31046;DHT22;17711;54.018;9.300;2022-07-22T15:37:20;22.80;72.90
31046;DHT22;17711;54.018;9.300;2022-07-22T15:39:56;22.30;77.00
31046;DHT22;17711;54.018;9.300;2022-07-22T15:42:52;22.30;84.10
31046;DHT22;17711;54.018;9.300;2022-07-22T15:45:28;22.40;79.30
31046;DHT22;17711;54.018;9.300;2022-07-22T15:48:01;22.20;82.80
31046;DHT22;17711;54.018;9.300;2022-07-22T15:50:34;22.20;78.60
31046;DHT22;17711;54.018;9.300;2022-07-22T15:53:23;22.10;80.10
31046;DHT22;17711;54.018;9.300;2022-07-22T15:56:08;22.00;85.50
31046;DHT22;17711;54.018;9.300;2022-07-22T15:59:00;21.90;85.10
31046;DHT22;17711;54.018;9.300;2022-07-22T16:01:59;21.90;85.80
31046;DHT22;17711;54.018;9.300;2022-07-22T16:04:37;21.70;88.00
31046;DHT22;17711;54.018;9.300;2022-07-22T16:07:13;21.70;92.00
31046;DHT22;17711;54.018;9.300;2022-07-22T16:09:48;21.80;93.30